sensor_id;sensor_type;location;lat;lon;timestamp;P1;durP1;ratioP1;P2;durP2;ratioP2
16286;SDS011;8251;53.568;10.018;2024-02-26T00:00:55;20.40;;;9.53;;
16286;SDS011;8251;53.568;10.018;2024-02-26T00:03:22;34.33;;;11.30;;
16286;SDS011;8251;53.568;10.018;2024-02-26T00:05:49;27.17;;;11.27;;
16286;SDS011;8251;53.568;10.018;2024-02-26T00:08:19;31.10;;;11.60;;
16286;SDS011;8251;53.568;10.018;2024-02-26T00:10:52;27.03;;;10.90;;
16286;SDS011;8251;53.568;10.018;2024-02-26T00:13:20;24.20;;;10.67;;
16286;SDS011;8251;53.568;10.018;2024-02-26T00:15:47;33.73;;;12.43;;
16286;SDS011;8251;53.568;10.018;2024-02-26T00:18:16;29.33;;;10.80;;
16286;SDS011;8251;53.568;10.018;2024-02-26T00:20:43;23.33;;;9.73;;
16286;SDS011;8251;53.568;10.018;2024-02-26T00:23:10;25.53;;;10.23;;
16286;SDS011;8251;53.568;10.018;2024-02-26T00:25:37;19.10;;;10.27;;
16286;SDS011;8251;53.568;10.018;2024-02-26T00:28:04;20.90;;;9.97;;
16286;SDS011;8251;53.568;10.018;2024-02-26T00:30:34;19.07;;;9.33;;
16286;SDS011;8251;53.568;10.018;2024-02-26T00:33:01;22.53;;;9.77;;
16286;SDS011;8251;53.568;10.018;2024-02-26T00:35:30;21.33;;;9.13;;
16286;SDS011;8251;53.568;10.018;2024-02-26T00:37:57;25.93;;;9.83;;
16286;SDS011;8251;53.568;10.018;2024-02-26T00:40:31;31.17;;;10.13;;
16286;SDS011;8251;53.568;10.018;2024-02-26T00:43:04;21.27;;;8.87;;
16286;SDS011;8251;53.568;10.018;2024-02-26T00:45:31;19.97;;;8.33;;
16286;SDS011;8251;53.568;10.018;2024-02-26T00:48:00;25.00;;;9.03;;
16286;SDS011;8251;53.568;10.018;2024-02-26T00:50:51;15.77;;;8.17;;
16286;SDS011;8251;53.568;10.018;2024-02-26T00:53:30;16.37;;;7.30;;
16286;SDS011;8251;53.568;10.018;2024-02-26T00:56:04;14.20;;;7.50;;
16286;SDS011;8251;53.568;10.018;2024-02-26T00:58:34;14.07;;;6.63;;
16286;SDS011;8251;53.568;10.018;2024-02-26T01:01:01;21.13;;;8.50;;
16286;SDS011;8251;53.568;10.018;2024-02-26T01:03:34;13.50;;;7.87;;
16286;SDS011;8251;53.568;10.018;2024-02-26T01:06:03;15.57;;;7.77;;
16286;SDS011;8251;53.568;10.018;2024-02-26T01:08:33;12.47;;;7.10;;
16286;SDS011;8251;53.568;10.018;2024-02-26T01:11:02;11.27;;;5.93;;
16286;SDS011;8251;53.568;10.018;2024-02-26T01:13:30;10.80;;;6.07;;
16286;SDS011;8251;53.568;10.018;2024-02-26T01:15:56;9.97;;;5.73;;
16286;SDS011;8251;53.568;10.018;2024-02-26T01:18:52;13.10;;;5.73;;
16286;SDS011;8251;53.568;10.018;2024-02-26T01:21:23;10.87;;;5.30;;
16286;SDS011;8251;53.568;10.018;2024-02-26T01:23:52;9.13;;;5.30;;
16286;SDS011;8251;53.568;10.018;2024-02-26T01:26:19;8.17;;;5.10;;
16286;SDS011;8251;53.568;10.018;2024-02-26T01:28:47;8.67;;;6.43;;
16286;SDS011;8251;53.568;10.018;2024-02-26T01:31:17;9.17;;;5.57;;
16286;SDS011;8251;53.568;10.018;2024-02-26T01:33:46;7.03;;;5.30;;
16286;SDS011;8251;53.568;10.018;2024-02-26T01:36:13;9.30;;;5.70;;
16286;SDS011;8251;53.568;10.018;2024-02-26T01:38:42;8.60;;;5.80;;
16286;SDS011;8251;53.568;10.018;2024-02-26T01:41:09;9.47;;;5.30;;
16286;SDS011;8251;53.568;10.018;2024-02-26T01:43:36;9.47;;;5.67;;
16286;SDS011;8251;53.568;10.018;2024-02-26T01:46:06;12.30;;;6.50;;
16286;SDS011;8251;53.568;10.018;2024-02-26T01:48:40;10.13;;;6.33;;
16286;SDS011;8251;53.568;10.018;2024-02-26T01:51:07;8.13;;;6.63;;
16286;SDS011;8251;53.568;10.018;2024-02-26T01:53:35;8.97;;;6.33;;
16286;SDS011;8251;53.568;10.018;2024-02-26T01:56:03;9.60;;;6.43;;
16286;SDS011;8251;53.568;10.018;2024-02-26T01:58:36;9.50;;;6.00;;
16286;SDS011;8251;53.568;10.018;2024-02-26T02:01:06;8.37;;;6.40;;
16286;SDS011;8251;53.568;10.018;2024-02-26T02:03:42;9.47;;;5.63;;
16286;SDS011;8251;53.568;10.018;2024-02-26T02:06:10;8.70;;;5.80;;
16286;SDS011;8251;53.568;10.018;2024-02-26T02:08:38;11.37;;;6.73;;
16286;SDS011;8251;53.568;10.018;2024-02-26T02:11:07;15.07;;;9.30;;
16286;SDS011;8251;53.568;10.018;2024-02-26T02:13:36;14.27;;;8.73;;
16286;SDS011;8251;53.568;10.018;2024-02-26T02:16:03;17.47;;;7.97;;
16286;SDS011;8251;53.568;10.018;2024-02-26T02:18:34;12.67;;;8.37;;
16286;SDS011;8251;53.568;10.018;2024-02-26T02:21:03;16.37;;;8.83;;
16286;SDS011;8251;53.568;10.018;2024-02-26T02:23:33;18.20;;;10.10;;
16286;SDS011;8251;53.568;10.018;2024-02-26T02:26:04;17.03;;;9.50;;
16286;SDS011;8251;53.568;10.018;2024-02-26T02:28:31;18.60;;;10.13;;
16286;SDS011;8251;53.568;10.018;2024-02-26T02:30:58;15.70;;;10.10;;
16286;SDS011;8251;53.568;10.018;2024-02-26T02:33:35;13.07;;;8.63;;
16286;SDS011;8251;53.568;10.018;2024-02-26T02:36:04;15.93;;;8.77;;
16286;SDS011;8251;53.568;10.018;2024-02-26T02:38:48;14.87;;;9.10;;
16286;SDS011;8251;53.568;10.018;2024-02-26T02:41:24;14.97;;;8.93;;
16286;SDS011;8251;53.568;10.018;2024-02-26T02:43:54;12.67;;;8.53;;
16286;SDS011;8251;53.568;10.018;2024-02-26T02:46:21;14.23;;;8.43;;
16286;SDS011;8251;53.568;10.018;2024-02-26T02:48:58;16.63;;;8.13;;
16286;SDS011;8251;53.568;10.018;2024-02-26T02:51:32;15.77;;;8.37;;
16286;SDS011;8251;53.568;10.018;2024-02-26T02:53:59;12.13;;;8.10;;
16286;SDS011;8251;53.568;10.018;2024-02-26T02:56:29;14.07;;;8.10;;
16286;SDS011;8251;53.568;10.018;2024-02-26T02:58:56;13.83;;;8.13;;
16286;SDS011;8251;53.568;10.018;2024-02-26T03:01:23;12.77;;;7.63;;
16286;SDS011;8251;53.568;10.018;2024-02-26T03:03:51;14.37;;;8.83;;
16286;SDS011;8251;53.568;10.018;2024-02-26T03:06:18;11.73;;;8.27;;
16286;SDS011;8251;53.568;10.018;2024-02-26T03:08:49;13.20;;;8.07;;
16286;SDS011;8251;53.568;10.018;2024-02-26T03:11:16;12.93;;;8.07;;
16286;SDS011;8251;53.568;10.018;2024-02-26T03:13:44;13.87;;;8.80;;
16286;SDS011;8251;53.568;10.018;2024-02-26T03:16:12;13.70;;;8.80;;
16286;SDS011;8251;53.568;10.018;2024-02-26T03:18:46;16.60;;;8.57;;
16286;SDS011;8251;53.568;10.018;2024-02-26T03:21:13;12.90;;;9.07;;
16286;SDS011;8251;53.568;10.018;2024-02-26T03:23:40;14.43;;;8.63;;
16286;SDS011;8251;53.568;10.018;2024-02-26T03:26:11;13.63;;;9.40;;
16286;SDS011;8251;53.568;10.018;2024-02-26T03:28:41;13.00;;;8.57;;
16286;SDS011;8251;53.568;10.018;2024-02-26T03:31:11;14.40;;;8.60;;
16286;SDS011;8251;53.568;10.018;2024-02-26T03:33:40;13.20;;;9.87;;
16286;SDS011;8251;53.568;10.018;2024-02-26T03:36:09;14.73;;;8.87;;
16286;SDS011;8251;53.568;10.018;2024-02-26T03:38:37;14.70;;;9.03;;
16286;SDS011;8251;53.568;10.018;2024-02-26T03:41:04;14.13;;;9.77;;
16286;SDS011;8251;53.568;10.018;2024-02-26T03:43:34;16.73;;;9.37;;
16286;SDS011;8251;53.568;10.018;2024-02-26T03:46:10;17.33;;;9.70;;
16286;SDS011;8251;53.568;10.018;2024-02-26T03:48:38;13.10;;;8.87;;
16286;SDS011;8251;53.568;10.018;2024-02-26T03:51:08;13.67;;;9.43;;
16286;SDS011;8251;53.568;10.018;2024-02-26T03:53:35;17.93;;;9.33;;
16286;SDS011;8251;53.568;10.018;2024-02-26T03:56:03;13.20;;;9.37;;
16286;SDS011;8251;53.568;10.018;2024-02-26T03:58:31;18.23;;;9.20;;
16286;SDS011;8251;53.568;10.018;2024-02-26T04:01:02;15.50;;;9.97;;
16286;SDS011;8251;53.568;10.018;2024-02-26T04:03:29;15.73;;;9.87;;
16286;SDS011;8251;53.568;10.018;2024-02-26T04:05:57;14.63;;;9.27;;
16286;SDS011;8251;53.568;10.018;2024-02-26T04:08:24;16.20;;;10.03;;
16286;SDS011;8251;53.568;10.018;2024-02-26T04:10:55;16.20;;;9.17;;
16286;SDS011;8251;53.568;10.018;2024-02-26T04:13:22;15.97;;;10.00;;
16286;SDS011;8251;53.568;10.018;2024-02-26T04:15:49;14.87;;;9.17;;
16286;SDS011;8251;53.568;10.018;2024-02-26T04:18:20;18.13;;;10.57;;
16286;SDS011;8251;53.568;10.018;2024-02-26T04:20:47;14.10;;;9.53;;
16286;SDS011;8251;53.568;10.018;2024-02-26T04:23:19;13.23;;;9.20;;
16286;SDS011;8251;53.568;10.018;2024-02-26T04:25:49;15.07;;;9.83;;
16286;SDS011;8251;53.568;10.018;2024-02-26T04:28:19;14.07;;;9.90;;
16286;SDS011;8251;53.568;10.018;2024-02-26T04:30:46;14.20;;;9.50;;
16286;SDS011;8251;53.568;10.018;2024-02-26T04:33:16;13.70;;;9.53;;
16286;SDS011;8251;53.568;10.018;2024-02-26T04:35:48;12.03;;;8.60;;
16286;SDS011;8251;53.568;10.018;2024-02-26T04:38:18;16.23;;;10.17;;
16286;SDS011;8251;53.568;10.018;2024-02-26T04:40:45;13.83;;;9.50;;
16286;SDS011;8251;53.568;10.018;2024-02-26T04:43:16;16.03;;;10.20;;
16286;SDS011;8251;53.568;10.018;2024-02-26T04:45:44;14.27;;;9.40;;
16286;SDS011;8251;53.568;10.018;2024-02-26T04:48:15;17.60;;;9.23;;
16286;SDS011;8251;53.568;10.018;2024-02-26T04:50:42;14.80;;;9.73;;
16286;SDS011;8251;53.568;10.018;2024-02-26T04:53:10;14.83;;;9.00;;
16286;SDS011;8251;53.568;10.018;2024-02-26T04:55:37;17.90;;;9.43;;
16286;SDS011;8251;53.568;10.018;2024-02-26T04:58:04;13.77;;;9.13;;
16286;SDS011;8251;53.568;10.018;2024-02-26T05:00:35;13.03;;;8.80;;
16286;SDS011;8251;53.568;10.018;2024-02-26T05:03:03;14.20;;;8.63;;
16286;SDS011;8251;53.568;10.018;2024-02-26T05:05:32;14.53;;;8.73;;
16286;SDS011;8251;53.568;10.018;2024-02-26T05:07:59;14.90;;;9.30;;
16286;SDS011;8251;53.568;10.018;2024-02-26T05:10:36;17.03;;;9.73;;
16286;SDS011;8251;53.568;10.018;2024-02-26T05:13:06;14.90;;;9.53;;
16286;SDS011;8251;53.568;10.018;2024-02-26T05:15:33;14.83;;;10.17;;
16286;SDS011;8251;53.568;10.018;2024-02-26T05:18:01;14.40;;;8.90;;
16286;SDS011;8251;53.568;10.018;2024-02-26T05:20:31;12.57;;;8.47;;
16286;SDS011;8251;53.568;10.018;2024-02-26T05:23:00;12.43;;;8.60;;
16286;SDS011;8251;53.568;10.018;2024-02-26T05:25:29;14.30;;;9.23;;
16286;SDS011;8251;53.568;10.018;2024-02-26T05:27:58;12.17;;;8.33;;
16286;SDS011;8251;53.568;10.018;2024-02-26T05:30:25;12.97;;;8.40;;
16286;SDS011;8251;53.568;10.018;2024-02-26T05:32:55;13.53;;;8.80;;
16286;SDS011;8251;53.568;10.018;2024-02-26T05:35:26;13.07;;;7.77;;
16286;SDS011;8251;53.568;10.018;2024-02-26T05:37:55;14.63;;;9.00;;
16286;SDS011;8251;53.568;10.018;2024-02-26T05:40:30;12.80;;;7.73;;
16286;SDS011;8251;53.568;10.018;2024-02-26T05:42:59;15.20;;;9.17;;
16286;SDS011;8251;53.568;10.018;2024-02-26T05:45:26;15.80;;;9.13;;
16286;SDS011;8251;53.568;10.018;2024-02-26T05:47:56;15.33;;;9.70;;
16286;SDS011;8251;53.568;10.018;2024-02-26T05:50:24;10.53;;;7.40;;
16286;SDS011;8251;53.568;10.018;2024-02-26T05:52:58;14.57;;;9.00;;
16286;SDS011;8251;53.568;10.018;2024-02-26T05:55:35;14.97;;;8.40;;
16286;SDS011;8251;53.568;10.018;2024-02-26T05:58:08;14.00;;;8.90;;
16286;SDS011;8251;53.568;10.018;2024-02-26T06:00:38;12.17;;;8.27;;
16286;SDS011;8251;53.568;10.018;2024-02-26T06:03:08;12.80;;;8.50;;
16286;SDS011;8251;53.568;10.018;2024-02-26T06:05:38;13.33;;;8.17;;
16286;SDS011;8251;53.568;10.018;2024-02-26T06:08:07;12.27;;;7.70;;
16286;SDS011;8251;53.568;10.018;2024-02-26T06:10:34;12.50;;;8.00;;
16286;SDS011;8251;53.568;10.018;2024-02-26T06:13:01;12.73;;;8.07;;
16286;SDS011;8251;53.568;10.018;2024-02-26T06:15:29;13.67;;;8.90;;
16286;SDS011;8251;53.568;10.018;2024-02-26T06:17:56;11.27;;;7.27;;
16286;SDS011;8251;53.568;10.018;2024-02-26T06:20:24;11.33;;;7.37;;
16286;SDS011;8251;53.568;10.018;2024-02-26T06:22:51;13.53;;;9.03;;
16286;SDS011;8251;53.568;10.018;2024-02-26T06:25:18;12.20;;;8.13;;
16286;SDS011;8251;53.568;10.018;2024-02-26T06:27:45;15.00;;;8.77;;
16286;SDS011;8251;53.568;10.018;2024-02-26T06:30:13;13.97;;;8.77;;
16286;SDS011;8251;53.568;10.018;2024-02-26T06:32:43;14.27;;;9.00;;
16286;SDS011;8251;53.568;10.018;2024-02-26T06:35:10;15.53;;;9.33;;
16286;SDS011;8251;53.568;10.018;2024-02-26T06:37:38;17.33;;;10.17;;
16286;SDS011;8251;53.568;10.018;2024-02-26T06:40:06;13.17;;;8.97;;
16286;SDS011;8251;53.568;10.018;2024-02-26T06:42:34;15.13;;;9.60;;
16286;SDS011;8251;53.568;10.018;2024-02-26T06:45:02;14.97;;;9.97;;
16286;SDS011;8251;53.568;10.018;2024-02-26T06:47:30;14.70;;;9.40;;
16286;SDS011;8251;53.568;10.018;2024-02-26T06:50:00;14.10;;;9.50;;
16286;SDS011;8251;53.568;10.018;2024-02-26T06:52:28;13.83;;;9.73;;
16286;SDS011;8251;53.568;10.018;2024-02-26T06:54:55;13.60;;;8.80;;
16286;SDS011;8251;53.568;10.018;2024-02-26T06:57:22;14.57;;;9.37;;
16286;SDS011;8251;53.568;10.018;2024-02-26T06:59:53;15.03;;;8.80;;
16286;SDS011;8251;53.568;10.018;2024-02-26T07:02:20;12.60;;;8.70;;
16286;SDS011;8251;53.568;10.018;2024-02-26T07:04:47;13.47;;;8.67;;
16286;SDS011;8251;53.568;10.018;2024-02-26T07:07:16;14.73;;;9.13;;
16286;SDS011;8251;53.568;10.018;2024-02-26T07:09:44;13.13;;;8.83;;
16286;SDS011;8251;53.568;10.018;2024-02-26T07:12:13;14.80;;;8.50;;
16286;SDS011;8251;53.568;10.018;2024-02-26T07:14:41;14.60;;;8.67;;
16286;SDS011;8251;53.568;10.018;2024-02-26T07:17:10;12.87;;;9.00;;
16286;SDS011;8251;53.568;10.018;2024-02-26T07:19:38;11.97;;;8.27;;
16286;SDS011;8251;53.568;10.018;2024-02-26T07:22:05;12.83;;;8.47;;
16286;SDS011;8251;53.568;10.018;2024-02-26T07:24:35;13.60;;;8.60;;
16286;SDS011;8251;53.568;10.018;2024-02-26T07:27:05;11.57;;;8.00;;
16286;SDS011;8251;53.568;10.018;2024-02-26T07:29:33;15.97;;;8.33;;
16286;SDS011;8251;53.568;10.018;2024-02-26T07:32:00;11.70;;;8.30;;
16286;SDS011;8251;53.568;10.018;2024-02-26T07:34:27;14.60;;;9.07;;
16286;SDS011;8251;53.568;10.018;2024-02-26T07:36:55;12.97;;;8.50;;
16286;SDS011;8251;53.568;10.018;2024-02-26T07:39:23;14.87;;;8.67;;
16286;SDS011;8251;53.568;10.018;2024-02-26T07:41:51;16.13;;;7.93;;
16286;SDS011;8251;53.568;10.018;2024-02-26T07:44:18;13.53;;;8.40;;
16286;SDS011;8251;53.568;10.018;2024-02-26T07:46:48;11.17;;;8.23;;
16286;SDS011;8251;53.568;10.018;2024-02-26T07:49:15;12.23;;;8.13;;
16286;SDS011;8251;53.568;10.018;2024-02-26T07:51:46;12.80;;;8.60;;
16286;SDS011;8251;53.568;10.018;2024-02-26T07:54:16;11.13;;;7.90;;
16286;SDS011;8251;53.568;10.018;2024-02-26T07:56:46;11.80;;;8.10;;
16286;SDS011;8251;53.568;10.018;2024-02-26T07:59:14;12.03;;;7.40;;
16286;SDS011;8251;53.568;10.018;2024-02-26T08:01:48;13.47;;;8.17;;
16286;SDS011;8251;53.568;10.018;2024-02-26T08:04:20;12.90;;;8.70;;
16286;SDS011;8251;53.568;10.018;2024-02-26T08:06:55;13.63;;;8.13;;
16286;SDS011;8251;53.568;10.018;2024-02-26T08:09:29;12.73;;;8.13;;
16286;SDS011;8251;53.568;10.018;2024-02-26T08:11:58;12.40;;;7.80;;
16286;SDS011;8251;53.568;10.018;2024-02-26T08:14:28;15.77;;;7.90;;
16286;SDS011;8251;53.568;10.018;2024-02-26T08:16:59;12.57;;;8.67;;
16286;SDS011;8251;53.568;10.018;2024-02-26T08:19:30;12.00;;;8.07;;
16286;SDS011;8251;53.568;10.018;2024-02-26T08:21:57;14.87;;;8.30;;
16286;SDS011;8251;53.568;10.018;2024-02-26T08:24:24;12.40;;;7.10;;
16286;SDS011;8251;53.568;10.018;2024-02-26T08:26:54;13.50;;;8.27;;
16286;SDS011;8251;53.568;10.018;2024-02-26T08:29:40;12.20;;;7.63;;
16286;SDS011;8251;53.568;10.018;2024-02-26T08:32:08;12.83;;;7.60;;
16286;SDS011;8251;53.568;10.018;2024-02-26T08:34:35;11.67;;;7.20;;
16286;SDS011;8251;53.568;10.018;2024-02-26T08:37:02;10.40;;;6.90;;
16286;SDS011;8251;53.568;10.018;2024-02-26T08:39:30;13.23;;;7.67;;
16286;SDS011;8251;53.568;10.018;2024-02-26T08:41:57;13.00;;;7.40;;
16286;SDS011;8251;53.568;10.018;2024-02-26T08:44:25;14.30;;;7.10;;
16286;SDS011;8251;53.568;10.018;2024-02-26T08:46:53;12.33;;;7.93;;
16286;SDS011;8251;53.568;10.018;2024-02-26T08:49:20;12.63;;;7.77;;
16286;SDS011;8251;53.568;10.018;2024-02-26T08:51:48;11.50;;;7.47;;
16286;SDS011;8251;53.568;10.018;2024-02-26T08:54:19;11.97;;;6.83;;
16286;SDS011;8251;53.568;10.018;2024-02-26T08:56:46;14.87;;;7.77;;
16286;SDS011;8251;53.568;10.018;2024-02-26T08:59:13;10.40;;;7.07;;
16286;SDS011;8251;53.568;10.018;2024-02-26T09:01:41;10.77;;;7.10;;
16286;SDS011;8251;53.568;10.018;2024-02-26T09:04:10;10.00;;;7.03;;
16286;SDS011;8251;53.568;10.018;2024-02-26T09:06:37;12.10;;;7.17;;
16286;SDS011;8251;53.568;10.018;2024-02-26T09:09:04;9.77;;;7.30;;
16286;SDS011;8251;53.568;10.018;2024-02-26T09:11:31;10.30;;;6.27;;
16286;SDS011;8251;53.568;10.018;2024-02-26T09:13:59;12.53;;;7.00;;
16286;SDS011;8251;53.568;10.018;2024-02-26T09:16:26;11.73;;;6.93;;
16286;SDS011;8251;53.568;10.018;2024-02-26T09:18:53;11.33;;;7.70;;
16286;SDS011;8251;53.568;10.018;2024-02-26T09:21:21;11.60;;;7.80;;
16286;SDS011;8251;53.568;10.018;2024-02-26T09:23:50;10.53;;;7.07;;
16286;SDS011;8251;53.568;10.018;2024-02-26T09:26:17;11.07;;;6.97;;
16286;SDS011;8251;53.568;10.018;2024-02-26T09:28:45;10.57;;;6.77;;
16286;SDS011;8251;53.568;10.018;2024-02-26T09:31:12;12.40;;;7.13;;
16286;SDS011;8251;53.568;10.018;2024-02-26T09:33:41;11.17;;;7.20;;
16286;SDS011;8251;53.568;10.018;2024-02-26T09:36:10;11.30;;;7.17;;
16286;SDS011;8251;53.568;10.018;2024-02-26T09:38:38;10.90;;;7.03;;
16286;SDS011;8251;53.568;10.018;2024-02-26T09:41:05;14.10;;;7.37;;
16286;SDS011;8251;53.568;10.018;2024-02-26T09:43:34;10.63;;;7.03;;
16286;SDS011;8251;53.568;10.018;2024-02-26T09:46:04;10.50;;;6.63;;
16286;SDS011;8251;53.568;10.018;2024-02-26T09:48:35;11.33;;;7.33;;
16286;SDS011;8251;53.568;10.018;2024-02-26T09:51:04;12.10;;;7.07;;
16286;SDS011;8251;53.568;10.018;2024-02-26T09:53:32;12.83;;;7.77;;
16286;SDS011;8251;53.568;10.018;2024-02-26T09:56:06;11.17;;;6.57;;
16286;SDS011;8251;53.568;10.018;2024-02-26T09:58:33;11.83;;;7.73;;
16286;SDS011;8251;53.568;10.018;2024-02-26T10:01:02;14.10;;;7.87;;
16286;SDS011;8251;53.568;10.018;2024-02-26T10:03:34;14.13;;;8.90;;
16286;SDS011;8251;53.568;10.018;2024-02-26T10:06:05;10.27;;;6.97;;
16286;SDS011;8251;53.568;10.018;2024-02-26T10:08:33;12.10;;;7.33;;
16286;SDS011;8251;53.568;10.018;2024-02-26T10:11:02;12.13;;;7.53;;
16286;SDS011;8251;53.568;10.018;2024-02-26T10:13:33;12.53;;;7.87;;
16286;SDS011;8251;53.568;10.018;2024-02-26T10:16:01;13.30;;;7.50;;
16286;SDS011;8251;53.568;10.018;2024-02-26T10:18:47;13.53;;;8.03;;
16286;SDS011;8251;53.568;10.018;2024-02-26T10:21:15;14.80;;;8.77;;
16286;SDS011;8251;53.568;10.018;2024-02-26T10:23:44;14.23;;;8.83;;
16286;SDS011;8251;53.568;10.018;2024-02-26T10:26:11;13.47;;;8.03;;
16286;SDS011;8251;53.568;10.018;2024-02-26T10:28:43;13.60;;;8.47;;
16286;SDS011;8251;53.568;10.018;2024-02-26T10:31:11;16.77;;;8.77;;
16286;SDS011;8251;53.568;10.018;2024-02-26T10:33:44;15.47;;;8.27;;
16286;SDS011;8251;53.568;10.018;2024-02-26T10:36:11;15.87;;;9.17;;
16286;SDS011;8251;53.568;10.018;2024-02-26T10:38:38;17.03;;;9.00;;
16286;SDS011;8251;53.568;10.018;2024-02-26T10:41:09;13.20;;;8.13;;
16286;SDS011;8251;53.568;10.018;2024-02-26T10:43:43;12.53;;;7.87;;
16286;SDS011;8251;53.568;10.018;2024-02-26T10:46:11;13.40;;;8.13;;
16286;SDS011;8251;53.568;10.018;2024-02-26T10:48:38;14.17;;;8.63;;
16286;SDS011;8251;53.568;10.018;2024-02-26T10:51:05;14.53;;;9.07;;
16286;SDS011;8251;53.568;10.018;2024-02-26T10:53:35;14.23;;;8.37;;
16286;SDS011;8251;53.568;10.018;2024-02-26T10:56:03;15.40;;;9.03;;
16286;SDS011;8251;53.568;10.018;2024-02-26T10:58:32;16.00;;;8.70;;
16286;SDS011;8251;53.568;10.018;2024-02-26T11:01:02;15.00;;;9.30;;
16286;SDS011;8251;53.568;10.018;2024-02-26T11:03:30;15.57;;;8.47;;
16286;SDS011;8251;53.568;10.018;2024-02-26T11:06:00;15.27;;;9.37;;
16286;SDS011;8251;53.568;10.018;2024-02-26T11:08:29;13.90;;;8.60;;
16286;SDS011;8251;53.568;10.018;2024-02-26T11:11:01;13.40;;;8.77;;
16286;SDS011;8251;53.568;10.018;2024-02-26T11:13:31;15.97;;;9.30;;
16286;SDS011;8251;53.568;10.018;2024-02-26T11:16:04;17.17;;;7.67;;
16286;SDS011;8251;53.568;10.018;2024-02-26T11:18:33;12.53;;;7.70;;
16286;SDS011;8251;53.568;10.018;2024-02-26T11:21:03;13.00;;;7.90;;
16286;SDS011;8251;53.568;10.018;2024-02-26T11:23:33;13.57;;;8.37;;
16286;SDS011;8251;53.568;10.018;2024-02-26T11:26:02;11.93;;;7.93;;
16286;SDS011;8251;53.568;10.018;2024-02-26T11:28:32;12.17;;;7.60;;
16286;SDS011;8251;53.568;10.018;2024-02-26T11:31:03;13.93;;;7.53;;
16286;SDS011;8251;53.568;10.018;2024-02-26T11:33:33;12.23;;;8.13;;
16286;SDS011;8251;53.568;10.018;2024-02-26T11:36:02;13.00;;;7.97;;
16286;SDS011;8251;53.568;10.018;2024-02-26T11:38:37;14.03;;;7.43;;
16286;SDS011;8251;53.568;10.018;2024-02-26T11:41:07;10.97;;;7.63;;
16286;SDS011;8251;53.568;10.018;2024-02-26T11:46:27;16.17;;;7.13;;
16286;SDS011;8251;53.568;10.018;2024-02-26T11:48:56;11.47;;;6.73;;
16286;SDS011;8251;53.568;10.018;2024-02-26T11:51:26;12.93;;;7.83;;
16286;SDS011;8251;53.568;10.018;2024-02-26T11:53:54;13.53;;;7.67;;
16286;SDS011;8251;53.568;10.018;2024-02-26T11:56:24;11.93;;;7.50;;
16286;SDS011;8251;53.568;10.018;2024-02-26T11:58:56;14.83;;;7.83;;
16286;SDS011;8251;53.568;10.018;2024-02-26T12:01:42;15.00;;;8.67;;
16286;SDS011;8251;53.568;10.018;2024-02-26T12:04:14;11.40;;;7.93;;
16286;SDS011;8251;53.568;10.018;2024-02-26T12:06:47;11.27;;;7.47;;
16286;SDS011;8251;53.568;10.018;2024-02-26T12:09:33;14.43;;;7.50;;
16286;SDS011;8251;53.568;10.018;2024-02-26T12:12:02;11.53;;;7.63;;
16286;SDS011;8251;53.568;10.018;2024-02-26T12:14:32;11.60;;;7.47;;
16286;SDS011;8251;53.568;10.018;2024-02-26T12:17:03;12.17;;;7.47;;
16286;SDS011;8251;53.568;10.018;2024-02-26T12:19:34;12.70;;;7.87;;
16286;SDS011;8251;53.568;10.018;2024-02-26T12:22:04;13.63;;;9.20;;
16286;SDS011;8251;53.568;10.018;2024-02-26T12:24:36;12.27;;;7.60;;
16286;SDS011;8251;53.568;10.018;2024-02-26T12:27:04;10.97;;;7.00;;
16286;SDS011;8251;53.568;10.018;2024-02-26T12:29:31;11.57;;;7.00;;
16286;SDS011;8251;53.568;10.018;2024-02-26T12:31:58;12.33;;;7.33;;
16286;SDS011;8251;53.568;10.018;2024-02-26T12:34:26;10.43;;;6.90;;
16286;SDS011;8251;53.568;10.018;2024-02-26T12:36:56;11.47;;;7.27;;
16286;SDS011;8251;53.568;10.018;2024-02-26T12:39:23;13.70;;;8.20;;
16286;SDS011;8251;53.568;10.018;2024-02-26T12:41:51;14.00;;;7.90;;
16286;SDS011;8251;53.568;10.018;2024-02-26T12:44:18;11.07;;;7.20;;
16286;SDS011;8251;53.568;10.018;2024-02-26T12:46:51;11.70;;;7.53;;
16286;SDS011;8251;53.568;10.018;2024-02-26T12:49:27;10.77;;;6.87;;
16286;SDS011;8251;53.568;10.018;2024-02-26T12:51:55;13.53;;;7.70;;
16286;SDS011;8251;53.568;10.018;2024-02-26T12:54:31;11.73;;;7.17;;
16286;SDS011;8251;53.568;10.018;2024-02-26T12:57:00;10.50;;;7.13;;
16286;SDS011;8251;53.568;10.018;2024-02-26T12:59:31;11.40;;;7.33;;
16286;SDS011;8251;53.568;10.018;2024-02-26T13:02:00;11.53;;;7.17;;
16286;SDS011;8251;53.568;10.018;2024-02-26T13:04:29;11.87;;;5.97;;
16286;SDS011;8251;53.568;10.018;2024-02-26T13:06:57;11.17;;;7.50;;
16286;SDS011;8251;53.568;10.018;2024-02-26T13:09:28;10.17;;;6.53;;
16286;SDS011;8251;53.568;10.018;2024-02-26T13:12:04;10.83;;;6.70;;
16286;SDS011;8251;53.568;10.018;2024-02-26T13:14:32;10.53;;;6.80;;
16286;SDS011;8251;53.568;10.018;2024-02-26T13:17:03;10.30;;;6.80;;
16286;SDS011;8251;53.568;10.018;2024-02-26T13:19:32;11.67;;;6.23;;
16286;SDS011;8251;53.568;10.018;2024-02-26T13:22:03;10.23;;;7.00;;
16286;SDS011;8251;53.568;10.018;2024-02-26T13:24:31;10.27;;;6.53;;
16286;SDS011;8251;53.568;10.018;2024-02-26T13:27:04;12.50;;;6.83;;
16286;SDS011;8251;53.568;10.018;2024-02-26T13:29:34;11.40;;;6.67;;
16286;SDS011;8251;53.568;10.018;2024-02-26T13:32:03;14.40;;;6.83;;
16286;SDS011;8251;53.568;10.018;2024-02-26T13:34:32;9.80;;;6.70;;
16286;SDS011;8251;53.568;10.018;2024-02-26T13:37:00;11.73;;;6.87;;
16286;SDS011;8251;53.568;10.018;2024-02-26T13:39:28;14.03;;;7.23;;
16286;SDS011;8251;53.568;10.018;2024-02-26T13:41:55;13.17;;;6.87;;
16286;SDS011;8251;53.568;10.018;2024-02-26T13:44:22;10.23;;;7.27;;
16286;SDS011;8251;53.568;10.018;2024-02-26T13:46:49;11.50;;;7.20;;
16286;SDS011;8251;53.568;10.018;2024-02-26T13:49:16;9.93;;;6.43;;
16286;SDS011;8251;53.568;10.018;2024-02-26T13:51:45;9.90;;;6.63;;
16286;SDS011;8251;53.568;10.018;2024-02-26T13:54:12;10.60;;;6.80;;
16286;SDS011;8251;53.568;10.018;2024-02-26T13:56:39;10.67;;;6.60;;
16286;SDS011;8251;53.568;10.018;2024-02-26T13:59:06;14.03;;;6.87;;
16286;SDS011;8251;53.568;10.018;2024-02-26T14:01:33;11.00;;;7.10;;
16286;SDS011;8251;53.568;10.018;2024-02-26T14:04:00;9.93;;;6.47;;
16286;SDS011;8251;53.568;10.018;2024-02-26T14:06:29;9.30;;;6.43;;
16286;SDS011;8251;53.568;10.018;2024-02-26T14:08:59;10.73;;;6.83;;
16286;SDS011;8251;53.568;10.018;2024-02-26T14:11:26;10.67;;;6.73;;
16286;SDS011;8251;53.568;10.018;2024-02-26T14:13:54;15.37;;;6.77;;
16286;SDS011;8251;53.568;10.018;2024-02-26T14:16:21;10.80;;;7.33;;
16286;SDS011;8251;53.568;10.018;2024-02-26T14:18:48;10.77;;;7.03;;
16286;SDS011;8251;53.568;10.018;2024-02-26T14:21:18;12.17;;;7.37;;
16286;SDS011;8251;53.568;10.018;2024-02-26T14:23:45;11.80;;;7.00;;
16286;SDS011;8251;53.568;10.018;2024-02-26T14:26:16;9.97;;;7.27;;
16286;SDS011;8251;53.568;10.018;2024-02-26T14:28:43;9.00;;;6.43;;
16286;SDS011;8251;53.568;10.018;2024-02-26T14:31:11;9.83;;;6.83;;
16286;SDS011;8251;53.568;10.018;2024-02-26T14:33:38;14.10;;;6.90;;
16286;SDS011;8251;53.568;10.018;2024-02-26T14:36:06;13.60;;;7.33;;
16286;SDS011;8251;53.568;10.018;2024-02-26T14:38:33;13.37;;;7.10;;
16286;SDS011;8251;53.568;10.018;2024-02-26T14:41:01;11.57;;;7.17;;
16286;SDS011;8251;53.568;10.018;2024-02-26T14:43:32;11.97;;;6.97;;
16286;SDS011;8251;53.568;10.018;2024-02-26T14:46:00;11.17;;;6.90;;
16286;SDS011;8251;53.568;10.018;2024-02-26T14:48:27;11.60;;;7.30;;
16286;SDS011;8251;53.568;10.018;2024-02-26T14:50:57;11.60;;;7.37;;